createdAt,value
2018-12-12T00:00:21.060Z,8.63
2018-12-12T00:02:31.911Z,9.40
2018-12-12T00:04:42.815Z,8.20
2018-12-12T00:06:54.168Z,8.80
2018-12-12T00:09:05.448Z,8.73
2018-12-12T00:11:16.301Z,9.33
2018-12-12T00:13:27.143Z,9.60
2018-12-12T00:15:38.077Z,8.30
2018-12-12T00:17:49.653Z,8.27
2018-12-12T00:20:00.626Z,9.30
2018-12-12T00:22:11.486Z,8.70
2018-12-12T00:24:22.389Z,6.97
2018-12-12T00:26:33.268Z,8.00
2018-12-12T00:28:44.140Z,7.80
2018-12-12T00:30:55.005Z,8.03
2018-12-12T00:33:06.824Z,9.07
2018-12-12T00:35:17.683Z,7.77
2018-12-12T00:37:29.400Z,8.03
2018-12-12T00:39:40.240Z,8.70
2018-12-12T00:41:51.089Z,8.93
2018-12-12T00:44:01.946Z,8.83
2018-12-12T00:46:12.808Z,8.97
2018-12-12T00:48:23.709Z,9.87
2018-12-12T00:50:34.574Z,9.87
2018-12-12T00:52:45.573Z,8.03
2018-12-12T00:54:56.417Z,10.67
2018-12-12T00:59:24.850Z,11.40
2018-12-12T01:01:35.688Z,10.53
2018-12-12T01:03:46.544Z,11.57
2018-12-12T01:05:57.378Z,11.53
2018-12-12T01:08:08.221Z,12.10
2018-12-12T01:10:19.184Z,11.10
2018-12-12T01:12:30.040Z,12.70
2018-12-12T01:14:40.911Z,12.17
2018-12-12T01:16:51.747Z,11.27
2018-12-12T01:19:02.692Z,12.00
2018-12-12T01:21:13.550Z,12.47
2018-12-12T01:23:24.727Z,11.47
2018-12-12T01:25:35.725Z,10.93
2018-12-12T01:27:46.579Z,13.07
2018-12-12T01:29:57.401Z,12.47
2018-12-12T01:32:08.259Z,12.20
2018-12-12T01:34:19.131Z,10.50
2018-12-12T01:36:29.973Z,11.93
2018-12-12T01:38:40.828Z,11.50
2018-12-12T01:40:54.693Z,11.93
2018-12-12T01:43:05.553Z,11.17
2018-12-12T01:45:16.384Z,9.70
2018-12-12T01:47:27.251Z,9.07
2018-12-12T01:49:38.101Z,10.57
2018-12-12T01:51:48.944Z,9.13
2018-12-12T01:53:59.757Z,10.03
2018-12-12T01:56:10.612Z,11.47
2018-12-12T01:58:21.425Z,12.00
2018-12-12T02:00:32.276Z,13.20
2018-12-12T02:02:43.092Z,13.33
2018-12-12T02:04:54.063Z,12.97
2018-12-12T02:07:04.906Z,11.87
2018-12-12T02:09:15.772Z,11.97
2018-12-12T02:11:26.633Z,12.10
2018-12-12T02:13:37.459Z,11.33
2018-12-12T02:15:48.345Z,13.03
2018-12-12T02:17:59.184Z,11.47
2018-12-12T02:20:10.021Z,11.67
2018-12-12T02:22:20.881Z,12.17
2018-12-12T02:24:31.709Z,12.47
2018-12-12T02:26:42.536Z,12.17
2018-12-12T02:28:53.367Z,12.93
2018-12-12T02:31:04.263Z,12.43
2018-12-12T02:33:15.219Z,10.17
2018-12-12T02:35:26.137Z,11.70
2018-12-12T02:37:37.114Z,12.23
2018-12-12T02:39:47.933Z,11.77
2018-12-12T02:41:58.992Z,13.97
2018-12-12T02:44:09.820Z,13.27
2018-12-12T02:46:20.659Z,13.73
2018-12-12T02:48:31.517Z,13.87
2018-12-12T02:50:42.547Z,13.67
2018-12-12T02:52:53.533Z,13.43
2018-12-12T02:55:04.382Z,13.27
2018-12-12T02:57:15.197Z,12.43
2018-12-12T02:59:26.048Z,13.40
2018-12-12T03:01:36.880Z,14.17
2018-12-12T03:03:48.642Z,12.57
2018-12-12T03:05:59.515Z,11.50
2018-12-12T03:08:10.346Z,12.23
2018-12-12T03:10:21.293Z,12.13
2018-12-12T03:12:32.154Z,11.60
2018-12-12T03:14:42.988Z,12.00
2018-12-12T03:16:53.818Z,9.43
2018-12-12T03:19:04.734Z,11.17
2018-12-12T03:21:15.684Z,10.87
2018-12-12T03:23:26.645Z,10.70
2018-12-12T03:25:37.479Z,11.23
2018-12-12T03:27:48.302Z,11.10
2018-12-12T03:29:59.138Z,11.60
2018-12-12T03:32:09.970Z,9.83
2018-12-12T03:34:20.905Z,10.53
2018-12-12T03:36:31.743Z,11.10
2018-12-12T03:38:42.561Z,10.97
2018-12-12T03:40:53.538Z,10.40
2018-12-12T03:43:04.529Z,10.93
2018-12-12T03:45:15.339Z,9.33
2018-12-12T03:47:26.198Z,9.57
2018-12-12T03:49:37.032Z,9.60
2018-12-12T03:51:48.920Z,10.70
2018-12-12T03:53:59.778Z,10.17
2018-12-12T03:56:10.620Z,10.87
2018-12-12T03:58:21.441Z,10.73
2018-12-12T04:00:32.272Z,10.07
2018-12-12T04:02:43.230Z,8.80
2018-12-12T04:04:54.145Z,10.63
2018-12-12T04:07:04.997Z,10.70
2018-12-12T04:09:15.832Z,10.60
2018-12-12T04:11:26.735Z,10.73
2018-12-12T04:13:37.603Z,9.07
2018-12-12T04:15:48.441Z,9.23
2018-12-12T04:17:59.301Z,11.17
2018-12-12T04:20:10.147Z,9.53
2018-12-12T04:22:21.313Z,11.67
2018-12-12T04:24:32.371Z,10.47
2018-12-12T04:26:43.288Z,10.97
2018-12-12T04:28:54.138Z,11.50
2018-12-12T04:31:05.023Z,10.67
2018-12-12T04:33:15.896Z,11.37
2018-12-12T04:35:26.710Z,11.73
2018-12-12T04:37:37.553Z,12.50
2018-12-12T04:39:48.398Z,15.67
2018-12-12T04:41:59.349Z,17.90
2018-12-12T04:44:10.196Z,13.80
2018-12-12T04:46:21.039Z,11.87
2018-12-12T04:48:31.998Z,12.27
2018-12-12T04:50:42.809Z,10.03
2018-12-12T04:52:53.625Z,9.90
2018-12-12T04:55:04.602Z,10.13
2018-12-12T04:57:15.488Z,10.97
2018-12-12T04:59:26.457Z,11.30
2018-12-12T05:01:37.408Z,8.87
2018-12-12T05:03:48.404Z,10.93
2018-12-12T05:05:59.235Z,12.00
2018-12-12T05:08:10.077Z,11.30
2018-12-12T05:10:20.924Z,11.30
2018-12-12T05:12:31.742Z,11.67
2018-12-12T05:14:42.702Z,10.60
2018-12-12T05:16:53.663Z,11.67
2018-12-12T05:19:04.544Z,12.90
2018-12-12T05:21:15.406Z,11.63
2018-12-12T05:23:26.260Z,10.53
2018-12-12T05:25:37.125Z,10.43
2018-12-12T05:27:48.068Z,11.73
2018-12-12T05:29:58.908Z,12.37
2018-12-12T05:32:09.736Z,11.57
2018-12-12T05:34:20.555Z,11.43
2018-12-12T05:36:31.424Z,11.83
2018-12-12T05:38:42.249Z,12.47
2018-12-12T05:40:53.245Z,11.60
2018-12-12T05:43:04.197Z,11.53
2018-12-12T05:45:15.089Z,12.10
2018-12-12T05:47:26.011Z,11.40
2018-12-12T05:49:36.837Z,11.30
2018-12-12T05:51:47.722Z,11.73
2018-12-12T05:53:58.567Z,12.77
2018-12-12T05:56:14.088Z,12.27
2018-12-12T05:58:22.417Z,12.17
2018-12-12T06:00:33.289Z,13.60
2018-12-12T06:02:44.138Z,11.73
2018-12-12T06:04:54.996Z,13.50
2018-12-12T06:07:05.870Z,13.80
2018-12-12T06:09:16.696Z,14.70
2018-12-12T06:11:27.516Z,13.23
2018-12-12T06:13:38.353Z,13.77
2018-12-12T06:15:49.191Z,13.77
2018-12-12T06:18:00.049Z,14.17
2018-12-12T06:20:11.037Z,13.50
2018-12-12T06:22:22.336Z,14.43
2018-12-12T06:24:33.517Z,14.53
2018-12-12T06:26:44.385Z,13.73
2018-12-12T06:28:55.253Z,12.90
2018-12-12T06:31:06.112Z,12.70
2018-12-12T06:33:16.963Z,14.20
2018-12-12T06:35:27.797Z,13.87
2018-12-12T06:37:38.662Z,13.37
2018-12-12T06:39:49.501Z,13.80
2018-12-12T06:42:00.345Z,14.00
2018-12-12T06:44:11.238Z,14.20
2018-12-12T06:46:22.188Z,13.90
2018-12-12T06:48:33.053Z,14.53
2018-12-12T06:50:43.905Z,14.83
2018-12-12T06:52:54.776Z,14.67
2018-12-12T06:55:05.744Z,14.40
2018-12-12T06:57:16.568Z,15.07
2018-12-12T06:59:27.433Z,15.27
2018-12-12T07:01:38.508Z,14.57
2018-12-12T07:03:49.384Z,14.13
2018-12-12T07:06:00.245Z,12.97
2018-12-12T07:08:11.084Z,11.73
2018-12-12T07:10:21.937Z,12.77
2018-12-12T07:12:32.787Z,13.83
2018-12-12T07:14:43.640Z,13.00
2018-12-12T07:16:54.477Z,13.00
2018-12-12T07:19:05.333Z,13.93
2018-12-12T07:21:16.224Z,14.23
2018-12-12T07:23:27.206Z,14.67
2018-12-12T07:25:38.083Z,13.53
2018-12-12T07:27:48.949Z,14.50
2018-12-12T07:29:59.840Z,15.27
2018-12-12T07:32:10.665Z,14.77
2018-12-12T07:34:21.656Z,14.87
2018-12-12T07:36:32.518Z,14.40
2018-12-12T07:38:43.407Z,14.77
2018-12-12T07:40:54.279Z,15.07
2018-12-12T07:43:05.158Z,14.27
2018-12-12T07:45:16.679Z,15.57
2018-12-12T07:47:27.703Z,13.67
2018-12-12T07:49:38.674Z,14.57
2018-12-12T07:51:49.528Z,13.37
2018-12-12T07:54:00.358Z,13.90
2018-12-12T07:56:11.261Z,14.47
2018-12-12T07:58:22.114Z,13.90
2018-12-12T08:00:33.008Z,14.53
2018-12-12T08:02:43.883Z,13.67
2018-12-12T08:04:54.733Z,14.03
2018-12-12T08:07:05.610Z,14.50
2018-12-12T08:09:16.561Z,15.17
2018-12-12T08:11:27.441Z,14.43
2018-12-12T08:13:38.268Z,14.17
2018-12-12T08:15:49.137Z,15.63
2018-12-12T08:18:00.025Z,13.93
2018-12-12T08:20:10.848Z,14.13
2018-12-12T08:22:21.688Z,13.33
2018-12-12T08:24:32.525Z,13.93
2018-12-12T08:26:43.417Z,15.87
2018-12-12T08:28:54.263Z,16.17
2018-12-12T08:31:05.104Z,16.50
2018-12-12T08:33:15.961Z,16.20
2018-12-12T08:35:26.798Z,18.17
2018-12-12T08:37:37.653Z,15.43
2018-12-12T08:39:48.490Z,13.30
2018-12-12T08:41:59.339Z,14.33
2018-12-12T08:44:10.204Z,16.77
2018-12-12T08:46:21.045Z,14.93
2018-12-12T08:48:31.912Z,14.70
2018-12-12T08:50:42.798Z,13.43
2018-12-12T08:52:53.608Z,15.13
2018-12-12T08:55:04.604Z,14.77
2018-12-12T08:57:15.681Z,16.77
2018-12-12T08:59:26.696Z,15.23
2018-12-12T09:01:37.535Z,15.83
2018-12-12T09:03:48.419Z,17.30
2018-12-12T09:05:59.296Z,15.50
2018-12-12T09:08:10.141Z,15.40
2018-12-12T09:10:20.979Z,16.17
2018-12-12T09:12:31.826Z,15.07
2018-12-12T09:14:42.695Z,15.77
2018-12-12T09:16:53.563Z,16.43
2018-12-12T09:19:04.527Z,18.67
2018-12-12T09:21:15.464Z,17.20
2018-12-12T09:23:26.858Z,19.77
2018-12-12T09:25:37.865Z,20.00
2018-12-12T09:27:48.701Z,17.93
2018-12-12T09:29:59.575Z,16.40
2018-12-12T09:32:10.399Z,14.20
2018-12-12T09:34:21.232Z,16.00
2018-12-12T09:36:32.100Z,17.27
2018-12-12T09:38:42.966Z,19.50
2018-12-12T09:40:53.992Z,18.13
2018-12-12T09:43:04.845Z,17.83
2018-12-12T09:45:21.526Z,18.43
2018-12-12T09:47:28.597Z,18.43
2018-12-12T09:49:39.415Z,17.50
2018-12-12T09:51:50.299Z,15.70
2018-12-12T09:54:01.137Z,15.60
2018-12-12T09:56:12.006Z,15.70
2018-12-12T09:58:22.862Z,15.00
2018-12-12T10:00:33.736Z,15.60
2018-12-12T10:02:44.580Z,13.33
2018-12-12T10:04:55.455Z,13.27
2018-12-12T10:07:06.300Z,13.57
2018-12-12T10:09:17.149Z,12.60
2018-12-12T10:11:28.023Z,13.57
2018-12-12T10:13:38.861Z,12.83
2018-12-12T10:15:49.716Z,12.30
2018-12-12T10:18:00.571Z,13.13
2018-12-12T10:20:11.407Z,13.30
2018-12-12T10:22:22.237Z,11.50
2018-12-12T10:24:33.290Z,13.83
2018-12-12T10:26:44.925Z,11.53
2018-12-12T10:28:56.517Z,14.10
2018-12-12T10:31:07.425Z,12.90
2018-12-12T10:33:18.260Z,12.50
2018-12-12T10:35:35.996Z,12.80
2018-12-12T10:37:46.845Z,13.03
2018-12-12T10:39:57.712Z,12.73
2018-12-12T10:42:08.609Z,12.70
2018-12-12T10:44:19.471Z,12.17
2018-12-12T10:46:30.371Z,13.13
2018-12-12T10:48:41.254Z,10.77
2018-12-12T10:50:52.206Z,11.63
2018-12-12T10:53:03.039Z,13.30
2018-12-12T10:55:13.939Z,11.93
2018-12-12T10:57:24.869Z,12.77
2018-12-12T10:59:35.736Z,12.87
2018-12-12T11:01:46.986Z,11.33
2018-12-12T11:03:57.847Z,9.90
2018-12-12T11:06:08.983Z,11.70
2018-12-12T11:08:19.955Z,10.47
2018-12-12T11:10:30.870Z,12.00
2018-12-12T11:12:41.742Z,12.00
2018-12-12T11:14:52.617Z,11.90
2018-12-12T11:17:03.468Z,12.07
2018-12-12T11:19:14.340Z,10.80
2018-12-12T11:21:25.184Z,10.77
2018-12-12T11:23:36.055Z,11.37
2018-12-12T11:25:46.936Z,14.83
2018-12-12T11:27:57.798Z,15.90
2018-12-12T11:30:08.855Z,14.10
2018-12-12T11:32:19.697Z,14.90
2018-12-12T11:34:30.544Z,13.30
2018-12-12T11:36:41.412Z,11.77
2018-12-12T11:38:52.282Z,15.00
2018-12-12T11:41:03.277Z,15.23
2018-12-12T11:43:14.561Z,14.63
2018-12-12T11:45:25.406Z,12.80
2018-12-12T11:47:36.259Z,12.67
2018-12-12T11:49:47.103Z,11.83
2018-12-12T11:51:58.221Z,12.67
2018-12-12T11:54:09.081Z,14.07
2018-12-12T11:56:19.920Z,12.47
2018-12-12T11:58:30.807Z,11.47
2018-12-12T12:00:41.649Z,11.73
2018-12-12T12:02:52.529Z,13.23
2018-12-12T12:05:04.595Z,12.40
2018-12-12T12:07:15.468Z,10.33
2018-12-12T12:09:26.322Z,10.60
2018-12-12T12:11:37.162Z,10.30
2018-12-12T12:13:48.048Z,10.73
2018-12-12T12:15:58.889Z,10.93
2018-12-12T12:18:09.777Z,9.53
2018-12-12T12:20:20.625Z,11.67
2018-12-12T12:22:31.628Z,9.20
2018-12-12T12:24:42.523Z,9.67
2018-12-12T12:26:53.382Z,8.27
2018-12-12T12:29:04.721Z,8.47
2018-12-12T12:31:16.886Z,8.63
2018-12-12T12:33:27.791Z,8.57
2018-12-12T12:35:38.694Z,8.47
2018-12-12T12:37:49.610Z,8.10
2018-12-12T12:40:00.482Z,7.63
2018-12-12T12:42:11.381Z,8.90
2018-12-12T12:44:22.262Z,8.67
2018-12-12T12:46:33.128Z,9.53
2018-12-12T12:48:43.999Z,9.37
2018-12-12T12:50:54.864Z,9.00
2018-12-12T12:53:05.714Z,8.20
2018-12-12T12:55:16.607Z,8.50
2018-12-12T12:57:27.536Z,8.70
2018-12-12T12:59:38.491Z,8.80
2018-12-12T13:01:49.407Z,9.63
2018-12-12T13:04:00.242Z,9.00
2018-12-12T13:06:11.119Z,9.23
2018-12-12T13:08:22.015Z,9.77
2018-12-12T13:10:33.132Z,9.00
2018-12-12T13:12:44.682Z,10.37
2018-12-12T13:14:55.547Z,9.17
2018-12-12T13:17:06.395Z,10.67
2018-12-12T13:19:17.249Z,11.23
2018-12-12T13:21:28.125Z,9.90
2018-12-12T13:23:38.949Z,9.43
2018-12-12T13:25:49.853Z,10.27
2018-12-12T13:28:00.672Z,9.80
2018-12-12T13:30:11.607Z,10.93
2018-12-12T13:32:22.491Z,11.80
2018-12-12T13:34:33.341Z,10.70
2018-12-12T13:36:44.232Z,11.10
2018-12-12T13:38:55.074Z,11.27
2018-12-12T13:41:05.905Z,11.17
2018-12-12T13:43:16.813Z,10.97
2018-12-12T13:45:27.688Z,12.00
2018-12-12T13:47:38.605Z,12.37
2018-12-12T13:49:49.467Z,12.97
2018-12-12T13:52:00.312Z,11.87
2018-12-12T13:54:11.216Z,12.17
2018-12-12T13:56:22.108Z,12.30
2018-12-12T13:58:32.958Z,11.67
2018-12-12T14:00:43.825Z,10.83
2018-12-12T14:02:54.705Z,10.60
2018-12-12T14:05:05.699Z,11.07
2018-12-12T14:07:16.540Z,10.90
2018-12-12T14:09:27.392Z,10.50
2018-12-12T14:11:38.280Z,12.57
2018-12-12T14:13:49.152Z,10.37
2018-12-12T14:16:00.033Z,10.97
2018-12-12T14:18:10.921Z,10.97
2018-12-12T14:20:21.777Z,11.33
2018-12-12T14:22:32.632Z,10.17
2018-12-12T14:24:43.490Z,10.10
2018-12-12T14:26:54.320Z,10.27
2018-12-12T14:29:05.185Z,10.57
2018-12-12T14:31:16.081Z,9.90
2018-12-12T14:33:26.917Z,10.87
2018-12-12T14:35:37.802Z,10.00
2018-12-12T14:37:48.637Z,10.00
2018-12-12T14:39:59.529Z,10.53
2018-12-12T14:42:11.149Z,9.73
2018-12-12T14:44:22.004Z,10.53
2018-12-12T14:46:32.880Z,10.57
2018-12-12T14:48:43.733Z,10.70
2018-12-12T14:50:54.634Z,9.90
2018-12-12T14:53:05.588Z,8.73
2018-12-12T14:55:16.445Z,11.43
2018-12-12T14:57:27.320Z,10.00
2018-12-12T14:59:38.179Z,9.47
2018-12-12T15:01:49.057Z,9.57
2018-12-12T15:03:59.889Z,10.30
2018-12-12T15:06:10.838Z,10.53
2018-12-12T15:08:21.729Z,10.93
2018-12-12T15:10:32.585Z,9.73
2018-12-12T15:12:43.486Z,11.47
2018-12-12T15:14:54.348Z,9.83
2018-12-12T15:17:05.225Z,10.23
2018-12-12T15:19:16.083Z,12.03
2018-12-12T15:21:26.928Z,13.57
2018-12-12T15:23:37.813Z,14.03
2018-12-12T15:25:48.727Z,12.83
2018-12-12T15:27:59.595Z,11.23
2018-12-12T15:30:10.689Z,12.40
2018-12-12T15:32:21.535Z,12.10
2018-12-12T15:34:32.388Z,12.90
2018-12-12T15:36:43.252Z,12.53
2018-12-12T15:38:54.134Z,11.67
2018-12-12T15:41:05.084Z,13.87
2018-12-12T15:43:15.949Z,10.83
2018-12-12T15:45:26.827Z,9.83
2018-12-12T15:47:37.693Z,9.80
2018-12-12T15:49:48.562Z,11.47
2018-12-12T15:51:59.425Z,10.87
2018-12-12T15:54:10.320Z,11.53
2018-12-12T15:56:21.198Z,10.20
2018-12-12T15:58:32.076Z,12.10
2018-12-12T16:00:43.396Z,10.63
2018-12-12T16:02:54.676Z,12.57
2018-12-12T16:05:05.584Z,11.30
2018-12-12T16:07:16.549Z,11.67
2018-12-12T16:09:27.433Z,11.13
2018-12-12T16:11:38.315Z,11.13
2018-12-12T16:13:49.160Z,11.27
2018-12-12T16:16:00.057Z,12.80
2018-12-12T16:18:10.953Z,10.27
2018-12-12T16:20:21.894Z,11.57
2018-12-12T16:22:32.867Z,12.20
2018-12-12T16:24:43.729Z,11.17
2018-12-12T16:26:54.662Z,11.67
2018-12-12T16:29:05.752Z,10.63
2018-12-12T16:31:16.638Z,11.20
2018-12-12T16:33:27.633Z,11.13
2018-12-12T16:35:38.560Z,12.13
2018-12-12T16:37:49.427Z,12.83
2018-12-12T16:40:00.320Z,11.07
2018-12-12T16:42:11.212Z,9.63
2018-12-12T16:44:22.093Z,9.93
2018-12-12T16:46:32.973Z,9.27
2018-12-12T16:48:43.918Z,11.47
2018-12-12T16:50:54.785Z,9.80
2018-12-12T16:53:05.654Z,10.80
2018-12-12T16:55:16.522Z,10.30
2018-12-12T16:57:27.380Z,11.13
2018-12-12T16:59:38.273Z,11.33
2018-12-12T17:01:49.145Z,9.60
2018-12-12T17:04:00.045Z,11.03
2018-12-12T17:06:10.933Z,10.83
2018-12-12T17:08:21.833Z,10.57
2018-12-12T17:10:32.712Z,9.87
2018-12-12T17:12:43.693Z,9.53
2018-12-12T17:14:54.577Z,8.00
2018-12-12T17:17:05.442Z,8.00
2018-12-12T17:19:16.348Z,7.07
2018-12-12T17:21:27.197Z,7.07
2018-12-12T17:23:38.106Z,7.00
2018-12-12T17:25:49.001Z,6.40
2018-12-12T17:27:59.930Z,6.03
2018-12-12T17:30:10.993Z,5.47
2018-12-12T17:32:21.866Z,5.57
2018-12-12T17:34:32.758Z,6.30
2018-12-12T17:36:43.728Z,6.50
2018-12-12T17:38:54.616Z,5.80
2018-12-12T17:41:05.517Z,6.63
2018-12-12T17:43:16.546Z,5.37
2018-12-12T17:45:27.401Z,6.37
2018-12-12T17:47:38.254Z,5.90
2018-12-12T17:49:49.165Z,5.47
2018-12-12T17:52:00.127Z,5.63
2018-12-12T17:54:11.063Z,5.50
2018-12-12T17:56:21.884Z,5.70
2018-12-12T17:58:32.746Z,7.20
2018-12-12T18:00:43.678Z,5.80
2018-12-12T18:02:54.576Z,5.70
2018-12-12T18:05:05.617Z,6.00
2018-12-12T18:07:16.502Z,6.73
2018-12-12T18:09:27.393Z,6.23
2018-12-12T18:11:38.364Z,5.80
2018-12-12T18:13:49.229Z,6.50
2018-12-12T18:16:00.075Z,6.50
2018-12-12T18:18:11.062Z,6.90
2018-12-12T18:20:21.952Z,5.97
2018-12-12T18:22:32.785Z,5.60
2018-12-12T18:24:43.665Z,4.63
2018-12-12T18:26:54.665Z,5.77
2018-12-12T18:29:05.640Z,6.20
2018-12-12T18:31:16.532Z,7.03
2018-12-12T18:33:27.394Z,7.87
2018-12-12T18:35:38.294Z,7.67
2018-12-12T18:37:49.167Z,7.13
2018-12-12T18:40:00.056Z,6.40
2018-12-12T18:42:10.997Z,6.67
2018-12-12T18:44:28.785Z,7.67
2018-12-12T18:46:39.661Z,7.60
2018-12-12T18:48:50.778Z,6.73
2018-12-12T18:51:01.754Z,6.37
2018-12-12T18:53:12.620Z,5.23
2018-12-12T18:55:23.789Z,5.00
2018-12-12T18:57:34.673Z,5.13
2018-12-12T18:59:45.601Z,5.90
2018-12-12T19:01:56.590Z,5.83
2018-12-12T19:04:07.479Z,4.83
2018-12-12T19:06:18.354Z,4.30
2018-12-12T19:08:29.242Z,4.17
2018-12-12T19:10:40.125Z,4.57
2018-12-12T19:12:51.037Z,4.63
2018-12-12T19:15:02.879Z,4.50
2018-12-12T19:17:13.831Z,4.90
2018-12-12T19:19:24.758Z,6.20
2018-12-12T19:21:35.614Z,5.40
2018-12-12T19:23:46.578Z,4.67
2018-12-12T19:25:57.462Z,4.17
2018-12-12T19:28:08.359Z,5.40
2018-12-12T19:30:19.243Z,5.53
2018-12-12T19:32:30.130Z,4.93
2018-12-12T19:34:41.031Z,4.80
2018-12-12T19:36:51.950Z,4.83
2018-12-12T19:39:05.625Z,4.67
2018-12-12T19:41:16.510Z,4.27
2018-12-12T19:43:27.435Z,3.93
2018-12-12T19:45:38.330Z,4.27
2018-12-12T19:47:49.193Z,4.43
2018-12-12T19:50:00.097Z,4.60
2018-12-12T19:52:10.988Z,5.67
2018-12-12T19:54:21.952Z,5.03
2018-12-12T19:56:32.863Z,5.03
2018-12-12T19:58:43.793Z,5.20
2018-12-12T20:00:54.686Z,5.10
2018-12-12T20:03:05.672Z,5.40
2018-12-12T20:05:16.550Z,5.10
2018-12-12T20:07:27.473Z,5.63
2018-12-12T20:09:38.367Z,5.00
2018-12-12T20:11:49.365Z,5.33
2018-12-12T20:14:00.278Z,5.70
2018-12-12T20:16:11.229Z,4.90
2018-12-12T20:18:22.121Z,4.03
2018-12-12T20:20:33.008Z,4.80
2018-12-12T20:22:43.870Z,4.87
2018-12-12T20:24:54.771Z,5.63
2018-12-12T20:27:05.710Z,4.93
2018-12-12T20:29:16.616Z,4.40
2018-12-12T20:31:27.513Z,4.73
2018-12-12T20:33:38.432Z,5.20
2018-12-12T20:35:49.352Z,5.10
2018-12-12T20:38:00.287Z,4.83
2018-12-12T20:40:11.324Z,4.77
2018-12-12T20:42:22.357Z,4.87
2018-12-12T20:44:33.290Z,5.07
2018-12-12T20:46:44.184Z,5.43
2018-12-12T20:48:55.201Z,5.20
2018-12-12T20:51:06.114Z,5.00
2018-12-12T20:53:17.026Z,5.00
2018-12-12T20:55:27.924Z,5.37
2018-12-12T20:57:38.867Z,5.07
2018-12-12T20:59:49.765Z,5.37
2018-12-12T21:02:00.785Z,4.70
2018-12-12T21:04:11.665Z,4.17
2018-12-12T21:06:22.502Z,4.20
2018-12-12T21:08:33.416Z,3.90
2018-12-12T21:10:44.326Z,3.90
2018-12-12T21:12:55.216Z,4.63
2018-12-12T21:15:07.692Z,4.13
2018-12-12T21:17:18.598Z,4.83
2018-12-12T21:19:29.472Z,4.57
2018-12-12T21:21:40.858Z,4.20
2018-12-12T21:23:51.933Z,3.97
2018-12-12T21:26:03.308Z,4.60
2018-12-12T21:28:14.371Z,4.50
2018-12-12T21:30:25.274Z,4.67
2018-12-12T21:32:36.185Z,4.63
2018-12-12T21:34:47.259Z,4.60
2018-12-12T21:36:58.163Z,4.63
2018-12-12T21:39:09.048Z,4.90
2018-12-12T21:41:19.958Z,5.20
2018-12-12T21:43:37.802Z,4.70
2018-12-12T21:45:48.716Z,5.77
2018-12-12T21:47:59.590Z,4.17
2018-12-12T21:50:10.741Z,4.10
2018-12-12T21:52:21.680Z,4.43
2018-12-12T21:54:32.596Z,4.60
2018-12-12T21:56:43.541Z,4.30
2018-12-12T21:58:54.407Z,4.90
2018-12-12T22:01:05.276Z,5.27
2018-12-12T22:03:16.143Z,4.67
2018-12-12T22:05:27.618Z,5.10
2018-12-12T22:07:38.802Z,4.87
2018-12-12T22:09:49.872Z,5.13
2018-12-12T22:12:01.030Z,4.73
2018-12-12T22:14:13.098Z,5.43
2018-12-12T22:16:24.358Z,5.17
2018-12-12T22:18:35.304Z,5.13
2018-12-12T22:20:46.918Z,4.93
2018-12-12T22:22:58.061Z,5.13
2018-12-12T22:25:09.157Z,5.33
2018-12-12T22:27:20.308Z,5.57
2018-12-12T22:29:31.212Z,5.30
2018-12-12T22:31:42.123Z,5.43
2018-12-12T22:33:53.246Z,5.53
2018-12-12T22:36:04.224Z,5.33
2018-12-12T22:38:15.641Z,5.10
2018-12-12T22:40:26.573Z,4.93
2018-12-12T22:42:37.469Z,5.37
2018-12-12T22:44:48.336Z,4.87
2018-12-12T22:46:59.233Z,5.40
2018-12-12T22:49:10.137Z,5.20
2018-12-12T22:51:21.231Z,5.27
2018-12-12T22:53:32.097Z,4.87
2018-12-12T22:55:43.021Z,5.00
2018-12-12T22:57:53.945Z,5.27
2018-12-12T23:00:06.758Z,6.20
2018-12-12T23:02:17.623Z,5.27
2018-12-12T23:04:28.549Z,5.77
2018-12-12T23:06:39.626Z,5.10
2018-12-12T23:08:50.521Z,5.70
2018-12-12T23:11:01.476Z,6.07
2018-12-12T23:13:12.397Z,6.27
2018-12-12T23:15:24.791Z,6.23
2018-12-12T23:17:35.783Z,5.83
2018-12-12T23:19:46.892Z,5.73
2018-12-12T23:21:57.758Z,5.57
2018-12-12T23:24:08.660Z,5.80
2018-12-12T23:26:19.539Z,5.30
2018-12-12T23:28:30.419Z,4.87
2018-12-12T23:30:41.268Z,5.90
2018-12-12T23:32:52.110Z,5.57
2018-12-12T23:35:03.433Z,5.10
2018-12-12T23:37:14.302Z,6.03
2018-12-12T23:39:25.143Z,6.17
2018-12-12T23:41:35.990Z,6.43
2018-12-12T23:43:47.036Z,6.90
2018-12-12T23:45:57.914Z,6.60
2018-12-12T23:48:08.906Z,6.27
2018-12-12T23:50:19.729Z,6.60
2018-12-12T23:52:30.759Z,7.10
2018-12-12T23:54:41.717Z,6.30
2018-12-12T23:56:52.549Z,6.93
2018-12-12T23:59:03.416Z,6.47
